SANT/TUC METAR and TAF weather

Enter ICAO airport designator
Station Type Date Time Source
SANT METAR 2019/10/20 19:00 UTC NOAA

SANT 201900Z 23008KT 8000 SCT030 BKN100 23/14 Q1014


Station Type Date Time Source
SANT Decoded METAR 2019/10/20 19:00 UTC NOAA

Tucuman Aerodrome, Argentina (SANT) 26-51S 065-06W 450M
Oct 20, 2019 - 03:00 PM EDT / 2019.10.20 1900 UTC
Wind: from the SW (230 degrees) at 9 MPH (8 KT):0
Visibility: 4 mile(s):0
Sky conditions: mostly cloudy
Temperature: 73 F (23 C)
Dew Point: 57 F (14 C)
Relative Humidity: 56%
Pressure (altimeter): 29.94 in. Hg (1014 hPa)
ob: SANT 201900Z 23008KT 8000 SCT030 BKN100 23/14 Q1014
cycle: 19

Station Type Date Time Source
SANT TAF 2019/10/20 18:45 UTC NOAA

TAF TAF SANT 201700Z 2018/2118 18005KT 5000 FU BKN030 TX26/2018Z TN14/2110Z
BECMG 2022/2100 23010KT 9999 SCT030

Example: see airport list